Time;durP1;ratioP1;P1;durP2;ratioP2;P2;SDS_P1;SDS_P2;PMS_P1;PMS_P2;Temp;Humidity;BMP_temperature;BMP_pressure;BME280_temperature;BME280_humidity;BME280_pressure;Samples;Min_cycle;Max_cycle;Signal;HPM_P1;HPM_P2
2021/03/17 00:01:17;;;;;;;33.10;16.80;;;;;;;1.85;77.69;99159.89;1689251;84;21912;-68
2021/03/17 00:04:07;;;;;;;37.10;19.45;;;;;;;1.84;77.62;99157.73;1689256;84;21156;-68
2021/03/17 00:06:53;;;;;;;47.93;20.20;;;;;;;1.84;77.78;99152.55;1689358;84;21161;-69
2021/03/17 00:09:40;;;;;;;37.23;20.10;;;;;;;1.82;77.53;99154.30;1719075;83;21220;-68
2021/03/17 00:12:29;;;;;;;36.42;18.62;;;;;;;1.82;77.78;99149.11;1689724;84;21657;-70
2021/03/17 00:15:29;;;;;;;41.60;18.55;;;;;;;1.83;78.21;99148.22;1720840;83;21209;-73
2021/03/17 00:18:15;;;;;;;45.80;20.65;;;;;;;1.83;78.19;99149.52;1689484;84;21759;-71
2021/03/17 00:21:02;;;;;;;35.20;17.52;;;;;;;1.85;78.30;99143.86;1719131;83;21204;-72
2021/03/17 00:23:48;;;;;;;40.40;20.77;;;;;;;1.84;77.96;99143.45;1689503;84;21138;-70
2021/03/17 00:26:35;;;;;;;40.28;18.02;;;;;;;1.83;78.07;99136.53;1689437;84;21204;-71
2021/03/17 00:29:21;;;;;;;40.28;18.48;;;;;;;1.82;78.09;99136.13;1719287;83;21805;-70
2021/03/17 00:32:07;;;;;;;40.70;20.23;;;;;;;1.84;78.18;99138.27;1719321;83;21184;-70
2021/03/17 00:34:54;;;;;;;37.98;19.15;;;;;;;1.82;78.25;99136.13;1719169;83;21200;-70
2021/03/17 00:37:40;;;;;;;41.00;19.73;;;;;;;1.83;78.22;99132.64;1689327;84;21142;-69
2021/03/17 00:40:27;;;;;;;34.13;17.90;;;;;;;1.84;78.17;99126.58;1719238;83;21220;-73
2021/03/17 00:43:16;;;;;;;42.70;21.37;;;;;;;1.85;77.69;99132.63;1689415;84;21350;-72
2021/03/17 00:46:05;;;;;;;48.30;19.55;;;;;;;1.83;78.15;99136.98;1689297;84;21101;-71
2021/03/17 00:48:35;;;;;;;46.20;20.40;;;;;;;1.82;78.27;99142.63;1689926;84;21185;-73
2021/03/17 00:51:19;;;;;;;38.55;19.27;;;;;;;1.83;78.12;99148.22;1685750;84;21310;-73
2021/03/17 00:54:05;;;;;;;49.88;22.30;;;;;;;1.82;78.17;99147.81;1719156;83;21248;-72
2021/03/17 00:56:35;;;;;;;38.65;19.73;;;;;;;1.83;78.12;99144.33;1721991;81;22329;-72
2021/03/17 00:59:04;;;;;;;37.58;19.27;;;;;;;1.84;77.90;99144.75;1747747;82;22247;-72
2021/03/17 01:01:32;;;;;;;40.35;18.98;;;;;;;1.82;77.31;99146.52;1747796;82;21090;-72
2021/03/17 01:04:00;;;;;;;41.77;20.05;;;;;;;1.80;76.70;99139.64;1747721;81;21177;-73
2021/03/17 01:06:28;;;;;;;33.80;17.55;;;;;;;1.78;76.72;99136.21;1746870;81;21587;-69
2021/03/17 01:08:55;;;;;;;40.75;17.57;;;;;;;1.75;76.73;99135.83;1745867;82;21378;-71
2021/03/17 01:11:23;;;;;;;43.60;18.70;;;;;;;1.75;77.11;99144.03;1745832;81;21717;-71
2021/03/17 01:13:50;;;;;;;41.60;19.32;;;;;;;1.76;77.23;99134.93;1746064;81;21370;-70
2021/03/17 01:16:17;;;;;;;38.95;18.80;;;;;;;1.78;77.55;99144.00;1745715;81;21159;-71
2021/03/17 01:18:46;;;;;;;42.85;20.00;;;;;;;1.79;77.52;99141.36;1746146;82;22224;-69
2021/03/17 01:21:15;;;;;;;43.65;20.52;;;;;;;1.80;77.40;99140.49;1745805;82;21667;-69
2021/03/17 01:23:43;;;;;;;48.73;24.07;;;;;;;1.79;77.52;99136.16;1745994;82;21180;-70
2021/03/17 01:26:11;;;;;;;54.85;25.17;;;;;;;1.79;77.89;99136.16;1745973;82;21631;-72
2021/03/17 01:28:39;;;;;;;45.63;22.52;;;;;;;1.80;77.67;99130.11;1746041;81;21186;-72
2021/03/17 01:31:07;;;;;;;49.10;21.73;;;;;;;1.81;77.64;99132.26;1745937;82;21195;-71
2021/03/17 01:33:34;;;;;;;40.92;18.15;;;;;;;1.81;77.48;99126.61;1746085;82;21411;-71
2021/03/17 01:36:02;;;;;;;31.33;18.87;;;;;;;1.80;77.08;99124.91;1745997;82;21630;-70
2021/03/17 01:38:30;;;;;;;42.90;18.10;;;;;;;1.79;76.77;99127.53;1746047;82;21156;-70
2021/03/17 01:40:59;;;;;;;33.25;17.55;;;;;;;1.78;76.79;99130.57;1745856;82;21206;-71
2021/03/17 01:43:27;;;;;;;36.10;18.37;;;;;;;1.78;76.79;99129.27;1746332;82;21460;-71
2021/03/17 01:45:55;;;;;;;37.65;16.23;;;;;;;1.78;76.78;99122.78;1726715;82;21407;-71
2021/03/17 01:48:24;;;;;;;35.60;16.75;;;;;;;1.80;76.61;99128.81;1746158;82;21163;-71
2021/03/17 01:50:55;;;;;;;34.58;16.97;;;;;;;1.76;75.93;99129.73;1745938;81;21710;-71
2021/03/17 01:53:31;;;;;;;32.70;16.67;;;;;;;1.75;76.02;99125.45;1746168;82;21185;-72
2021/03/17 01:56:00;;;;;;;37.75;18.07;;;;;;;1.74;76.33;99123.72;1746037;81;21179;-71
2021/03/17 01:58:29;;;;;;;39.90;17.98;;;;;;;1.74;76.37;99117.22;1746111;81;21203;-71
2021/03/17 02:00:57;;;;;;;37.45;18.30;;;;;;;1.75;76.44;99120.25;1719411;83;21378;-72
2021/03/17 02:03:27;;;;;;;38.20;17.50;;;;;;;1.75;76.70;99119.38;1723653;82;21172;-71
2021/03/17 02:05:55;;;;;;;36.63;17.55;;;;;;;1.75;76.46;99118.95;1750365;82;21215;-71
2021/03/17 02:08:35;;;;;;;43.33;18.32;;;;;;;1.77;75.93;99127.58;1750387;81;21190;-70
2021/03/17 02:11:04;;;;;;;53.20;20.02;;;;;;;1.77;75.93;99122.38;1750280;82;21373;-70
2021/03/17 02:13:53;;;;;;;44.08;19.40;;;;;;;1.76;76.18;99125.00;1750323;81;21189;-71
2021/03/17 02:16:40;;;;;;;38.00;18.35;;;;;;;1.76;76.02;99124.55;1749585;82;21224;-70
2021/03/17 02:19:51;;;;;;;42.30;16.85;;;;;;;1.77;76.11;99129.29;1750702;80;21221;-69
2021/03/17 02:22:55;;;;;;;40.67;20.17;;;;;;;1.76;76.21;99118.06;1750436;82;21201;-69
2021/03/17 02:26:06;;;;;;;39.90;20.90;;;;;;;1.77;76.13;99118.91;1719590;82;21202;-69
2021/03/17 02:28:50;;;;;;;;;;;;;;;1.74;76.51;99112.03;1722149;82;21196;-70
2021/03/17 02:31:43;;;;;;;46.50;23.25;;;;;;;1.71;77.17;99118.59;1719335;83;20304;-70
2021/03/17 02:34:13;;;;;;;40.05;20.70;;;;;;;1.68;77.15;99106.97;1719397;83;21195;-69
2021/03/17 02:36:53;;;;;;;45.23;20.75;;;;;;;1.67;76.83;99110.43;1750571;82;21176;-70
2021/03/17 02:39:43;;;;;;;44.13;19.37;;;;;;;1.68;77.01;99119.95;1723277;83;21649;-68
2021/03/17 02:42:30;;;;;;;37.13;18.12;;;;;;;1.67;77.26;99110.43;1747181;82;21178;-70
2021/03/17 02:45:08;;;;;;;43.78;20.23;;;;;;;1.67;77.43;99116.92;1747185;82;21645;-71
2021/03/17 02:47:49;;;;;;;47.17;22.02;;;;;;;1.69;77.63;99113.86;1747408;82;21178;-71
2021/03/17 02:50:17;;;;;;;39.92;21.12;;;;;;;1.69;77.39;99113.86;1708940;83;21225;-70
2021/03/17 02:52:47;;;;;;;42.75;21.48;;;;;;;1.70;77.60;99112.96;1729328;83;21765;-71
2021/03/17 02:55:17;;;;;;;45.40;19.48;;;;;;;1.70;77.52;99107.77;1747256;82;21570;-70
2021/03/17 02:57:45;;;;;;;39.03;19.10;;;;;;;1.71;77.42;99108.20;1747624;81;21146;-69
2021/03/17 03:00:14;;;;;;;39.90;20.55;;;;;;;1.73;76.95;99107.74;1749530;82;21247;-69
2021/03/17 03:02:43;;;;;;;34.88;20.25;;;;;;;1.73;76.87;99107.74;1750526;82;21180;-69
2021/03/17 03:06:57;;;;;;;40.50;20.20;;;;;;;1.78;76.74;99103.31;1814200;79;22585;-69
2021/03/17 03:09:26;;;;;;;45.45;20.80;;;;;;;1.74;76.47;99100.80;1787655;80;21561;-70
2021/03/17 03:11:57;;;;;;;42.27;19.27;;;;;;;1.74;76.41;99100.35;1787498;80;21424;-71
2021/03/17 03:14:27;;;;;;;35.68;19.73;;;;;;;1.73;76.23;99100.40;1787359;80;21051;-69
2021/03/17 03:16:58;;;;;;;35.85;18.35;;;;;;;1.71;76.29;99109.50;1787127;80;21602;-71
2021/03/17 03:19:31;;;;;;;;;;;;;;;1.71;76.43;99109.50;1790305;80;22121;-70
2021/03/17 03:21:59;;;;;;;45.33;21.00;;;;;;;1.71;76.31;99109.50;1787311;80;20626;-70
2021/03/17 03:24:27;;;;;;;46.50;22.17;;;;;;;1.68;76.58;99113.45;1787515;80;22091;-70
2021/03/17 03:26:56;;;;;;;52.00;23.00;;;;;;;1.68;76.59;99110.86;1787282;80;21150;-75
2021/03/17 03:29:27;;;;;;;41.95;20.08;;;;;;;1.69;76.58;99106.07;1787490;80;21158;-70
2021/03/17 03:31:58;;;;;;;36.90;20.08;;;;;;;1.71;76.78;99109.50;1787521;80;21170;-69
2021/03/17 03:34:26;;;;;;;36.42;19.05;;;;;;;1.73;76.92;99105.14;1756723;80;21177;-70
2021/03/17 03:36:53;;;;;;;43.85;21.85;;;;;;;1.74;76.98;99104.25;1787599;80;21368;-70
2021/03/17 03:39:23;;;;;;;42.03;21.05;;;;;;;1.75;76.74;99103.38;1787465;80;21173;-70
2021/03/17 03:41:53;;;;;;;42.70;20.68;;;;;;;1.77;76.64;99106.81;1787486;80;21179;-70
2021/03/17 03:44:23;;;;;;;38.65;21.37;;;;;;;1.77;76.46;99110.70;1787423;80;21732;-69
2021/03/17 03:46:51;;;;;;;40.58;20.23;;;;;;;1.77;76.39;99106.81;1787376;80;21171;-70
2021/03/17 03:49:21;;;;;;;40.10;17.65;;;;;;;1.77;76.11;99102.91;1794236;78;22190;-69
2021/03/17 03:52:15;;;;;;;35.75;18.70;;;;;;;1.78;76.13;99105.91;1788410;78;21195;-69
2021/03/17 03:54:52;;;;;;;35.95;17.45;;;;;;;1.78;76.11;99103.31;1819869;78;21166;-70
2021/03/17 03:57:23;;;;;;;40.52;19.48;;;;;;;1.79;76.23;99099.83;1721558;80;21650;-63
2021/03/17 03:59:55;;;;;;;37.75;19.15;;;;;;;1.79;76.08;99102.87;1686305;85;21231;-63
2021/03/17 04:02:26;;;;;;;43.60;18.65;;;;;;;1.80;76.41;99103.30;1679249;85;22128;-62
2021/03/17 04:04:56;;;;;;;41.20;19.70;;;;;;;1.80;76.21;99099.41;1679156;85;21249;-64
2021/03/17 04:07:24;;;;;;;40.15;19.48;;;;;;;1.81;76.07;99100.66;1679254;85;22177;-62
2021/03/17 04:09:53;;;;;;;39.63;19.95;;;;;;;1.82;76.22;99098.48;1679004;85;21269;-63
2021/03/17 04:12:23;;;;;;;46.92;20.50;;;;;;;1.84;76.12;99095.43;1664483;81;21227;-74
2021/03/17 04:14:54;;;;;;;40.38;19.05;;;;;;;1.85;76.12;99093.23;1604196;89;21836;-72
2021/03/17 04:17:39;;;;;;;36.90;19.52;;;;;;;1.85;75.89;99090.63;1598775;89;21221;-74
2021/03/17 04:20:15;;;;;;;37.83;17.85;;;;;;;1.83;75.52;99093.70;1603676;89;21228;-73
2021/03/17 04:22:44;;;;;;;35.17;18.20;;;;;;;1.81;75.68;99086.83;1598906;89;21209;-74
2021/03/17 04:25:15;;;;;;;37.78;17.02;;;;;;;1.84;75.85;99095.84;1635126;87;21602;-75
2021/03/17 04:27:45;;;;;;;38.78;18.60;;;;;;;1.85;75.77;99091.94;1602181;83;21393;-64
2021/03/17 04:30:15;;;;;;;39.80;20.30;;;;;;;1.83;75.76;99086.36;1598941;89;21236;-65
2021/03/17 04:32:44;;;;;;;40.63;19.92;;;;;;;1.82;75.78;99085.95;1598777;89;21231;-64
2021/03/17 04:35:14;;;;;;;43.95;20.37;;;;;;;1.82;76.37;99079.02;1598733;89;21199;-65
2021/03/17 04:37:45;;;;;;;40.83;18.32;;;;;;;1.86;76.23;99084.58;1583142;90;21173;-65
2021/03/17 04:40:15;;;;;;;41.70;18.85;;;;;;;1.91;75.82;99088.80;1583022;89;21505;-63
2021/03/17 04:42:43;;;;;;;34.25;17.70;;;;;;;1.88;75.48;99081.48;1603584;88;21240;-65
2021/03/17 04:45:14;;;;;;;36.25;17.40;;;;;;;1.91;75.65;99082.31;1624549;88;21610;-65
2021/03/17 04:47:42;;;;;;;34.83;17.82;;;;;;;1.89;75.74;99075.42;1624544;88;21236;-62
2021/03/17 04:50:16;;;;;;;32.75;16.70;;;;;;;1.92;75.68;99076.25;1616781;86;21208;-64
2021/03/17 04:52:44;;;;;;;35.78;17.00;;;;;;;1.95;75.49;99076.19;1598458;88;21168;-64
2021/03/17 04:55:14;;;;;;;37.10;16.27;;;;;;;1.96;75.58;99080.52;1598570;89;21176;-65
2021/03/17 04:57:43;;;;;;;28.35;15.13;;;;;;;1.98;75.70;99065.73;1598739;89;21227;-64
2021/03/17 05:00:13;;;;;;;33.10;15.50;;;;;;;2.01;75.91;99071.73;1597560;88;22249;-65
2021/03/17 05:02:47;;;;;;;34.48;14.83;;;;;;;2.07;76.53;99072.05;1597544;89;27610;-65
2021/03/17 05:05:18;;;;;;;35.58;16.12;;;;;;;2.10;76.14;99074.60;1647710;83;21408;-67
2021/03/17 05:07:54;;;;;;;40.30;16.77;;;;;;;2.12;75.55;99075.84;1707911;84;21157;-65
2021/03/17 05:10:32;;;;;;;36.60;16.67;;;;;;;2.12;75.66;99075.84;1707499;84;21248;-70
2021/03/17 05:13:00;;;;;;;34.90;16.30;;;;;;;2.14;75.51;99077.56;1702875;84;21237;-69
2021/03/17 05:15:27;;;;;;;33.02;16.70;;;;;;;2.14;75.09;99074.96;1702718;82;21184;-70
2021/03/17 05:17:58;;;;;;;28.85;14.47;;;;;;;2.17;75.02;99076.64;1665652;85;21623;-70
2021/03/17 05:20:25;;;;;;;25.30;15.13;;;;;;;2.17;74.79;99087.03;1629202;83;21222;-66
2021/03/17 05:22:53;;;;;;;33.50;14.87;;;;;;;2.18;74.85;99071.39;1647733;87;21166;-65
2021/03/17 05:25:25;;;;;;;33.48;15.18;;;;;;;2.20;74.55;99079.16;1621989;88;21155;-65
2021/03/17 05:28:03;;;;;;;34.50;15.08;;;;;;;2.18;74.37;99071.39;1647932;86;21198;-65
2021/03/17 05:30:27;;;;;;;48.23;17.85;;;;;;;2.18;74.49;99073.14;1621511;88;21316;-65
2021/03/17 05:32:57;;;;;;;29.60;14.25;;;;;;;2.20;74.36;99082.61;1664209;84;21226;-67
2021/03/17 05:35:26;;;;;;;35.03;15.85;;;;;;;2.21;74.57;99081.74;1643425;81;21212;-69
2021/03/17 05:37:59;;;;;;;36.10;15.10;;;;;;;2.23;74.35;99077.38;1629581;88;21305;-71
2021/03/17 05:40:32;;;;;;;37.40;15.20;;;;;;;2.24;73.99;99075.17;1683767;83;21591;-70
2021/03/17 05:43:05;;;;;;;30.92;14.58;;;;;;;2.25;74.48;99078.17;1709053;83;21214;-71
2021/03/17 05:45:36;;;;;;;34.08;14.65;;;;;;;2.27;74.08;99081.60;1693839;83;21186;-70
2021/03/17 05:48:06;;;;;;;31.97;16.07;;;;;;;2.28;73.92;99079.43;1695097;83;21229;-71
2021/03/17 05:50:34;;;;;;;37.35;14.93;;;;;;;2.31;73.83;99080.66;1653666;82;21263;-65
2021/03/17 05:53:07;;;;;;;28.17;13.55;;;;;;;2.33;73.88;99084.53;1653657;86;21638;-67
2021/03/17 05:55:36;;;;;;;24.37;12.88;;;;;;;2.37;74.20;99089.20;1610999;87;22400;-68
2021/03/17 05:58:04;;;;;;;34.30;13.85;;;;;;;2.42;73.73;99091.30;1680029;83;21288;-65
2021/03/17 06:00:32;;;;;;;27.30;13.60;;;;;;;2.44;73.73;99090.79;1646042;85;21404;-66
2021/03/17 06:03:03;;;;;;;25.17;14.38;;;;;;;2.46;73.60;99089.02;1673915;84;21205;-66
2021/03/17 06:05:32;;;;;;;38.95;16.57;;;;;;;2.47;73.23;99083.80;1691279;80;21234;-71
2021/03/17 06:08:07;;;;;;;31.35;15.68;;;;;;;2.46;73.19;99084.70;1683762;84;22508;-71
2021/03/17 06:10:38;;;;;;;28.77;15.15;;;;;;;2.46;73.18;99085.13;1736128;82;21155;-71
2021/03/17 06:13:13;;;;;;;36.35;16.05;;;;;;;2.46;73.24;99092.92;1713683;83;21203;-72
2021/03/17 06:15:48;;;;;;;30.92;14.13;;;;;;;2.49;73.17;99095.47;1687478;84;21490;-71
2021/03/17 06:18:31;;;;;;;30.30;14.23;;;;;;;2.52;72.69;99092.80;1680805;84;21246;-68
2021/03/17 06:21:01;;;;;;;33.53;14.70;;;;;;;2.56;72.77;99089.70;1688135;80;22357;-69
2021/03/17 06:23:28;;;;;;;30.27;13.78;;;;;;;2.60;72.70;99098.70;1682359;85;21241;-67
2021/03/17 06:25:59;;;;;;;30.48;14.98;;;;;;;2.61;72.94;99094.36;1651153;84;21189;-69
2021/03/17 06:28:28;;;;;;;36.75;15.38;;;;;;;2.63;72.56;99079.14;1657997;84;21131;-69
2021/03/17 06:30:57;;;;;;;32.98;16.25;;;;;;;2.66;72.30;99084.26;1658446;84;21589;-68
2021/03/17 06:33:25;;;;;;;33.53;15.10;;;;;;;2.68;72.58;99088.14;1648572;84;21227;-68
2021/03/17 06:36:20;;;;;;;29.25;14.75;;;;;;;2.70;72.72;99080.70;1699992;77;21138;-69
2021/03/17 06:38:53;;;;;;;39.13;18.00;;;;;;;2.77;72.75;99089.69;1696299;83;21153;-69
2021/03/17 06:41:22;;;;;;;38.78;18.17;;;;;;;2.85;72.58;99089.94;1700700;83;21617;-71
2021/03/17 06:44:34;;;;;;;40.58;15.93;;;;;;;2.90;71.70;99085.93;1710178;83;21150;-69
2021/03/17 06:47:31;;;;;;;;;;;;;;;;;;;;;
2021/03/17 06:50:14;;;;;;;41.68;19.05;;;;;;;2.92;71.50;99085.42;1708557;79;21584;-67
2021/03/17 06:52:45;;;;;;;32.42;17.12;;;;;;;2.99;71.51;99088.32;1707390;83;21192;-68
2021/03/17 06:55:19;;;;;;;32.30;15.43;;;;;;;3.04;71.57;99078.66;1718960;83;21195;-68
2021/03/17 06:57:54;;;;;;;34.38;15.88;;;;;;;3.12;71.02;99075.41;1716235;82;21187;-67
2021/03/17 07:00:32;;;;;;;26.02;14.25;;;;;;;3.19;70.89;99085.69;1716969;83;21217;-67
2021/03/17 07:03:09;;;;;;;35.60;14.60;;;;;;;3.23;70.90;99076.92;1718360;83;21149;-66
2021/03/17 07:05:45;;;;;;;28.98;14.68;;;;;;;3.29;70.46;99081.95;1710612;79;21181;-70
2021/03/17 07:08:30;;;;;;;30.60;15.40;;;;;;;3.28;70.72;99085.47;1708583;83;21169;-70
2021/03/17 07:11:00;;;;;;;39.92;15.83;;;;;;;3.28;71.07;99085.47;1704383;83;21171;-70
2021/03/17 07:13:29;;;;;;;32.93;15.35;;;;;;;3.28;71.07;99085.47;1702928;83;22374;-71
2021/03/17 07:15:59;;;;;;;28.27;14.50;;;;;;;3.31;71.01;99086.69;1704654;83;21156;-70
2021/03/17 07:18:30;;;;;;;40.70;15.83;;;;;;;3.33;70.85;99087.51;1703513;83;21189;-69
2021/03/17 07:21:05;;;;;;;38.17;15.20;;;;;;;3.31;70.31;99080.17;1715850;81;21234;-70
2021/03/17 07:23:41;;;;;;;29.45;14.63;;;;;;;3.29;70.48;99084.56;1678929;84;21171;-68
2021/03/17 07:26:19;;;;;;;37.40;14.95;;;;;;;3.39;70.24;99075.66;1674173;84;22215;-69
2021/03/17 07:29:03;;;;;;;26.30;13.38;;;;;;;3.39;70.24;99075.66;1669209;84;21248;-69
2021/03/17 07:31:45;;;;;;;34.83;14.73;;;;;;;3.43;70.73;99077.30;1716659;82;21158;-69
2021/03/17 07:34:24;;;;;;;23.90;13.18;;;;;;;3.43;70.73;99077.30;1716530;82;21630;-68
2021/03/17 07:36:58;;;;;;;29.42;13.85;;;;;;;3.47;70.71;99076.30;1724731;82;21236;-72
2021/03/17 07:42:12;;;;;;;24.05;12.75;;;;;;;3.44;70.88;99077.69;1732856;81;21214;-72
2021/03/17 07:44:42;;;;;;;23.27;14.18;;;;;;;3.47;70.96;99076.30;1736820;81;21219;-74
2021/03/17 07:47:11;;;;;;;26.55;13.15;;;;;;;3.48;70.83;99077.18;1728112;81;21669;-73
2021/03/17 07:49:43;;;;;;;;;;;;;;;3.53;70.90;99080.52;1733098;79;21162;-68
2021/03/17 07:52:23;;;;;;;29.82;13.53;;;;;;;3.58;70.89;99083.40;1709360;81;21386;-68
2021/03/17 07:54:53;;;;;;;;;;;;;;;3.56;70.69;99083.88;1707212;84;21254;-67
2021/03/17 07:57:26;;;;;;;31.00;14.95;;;;;;;3.56;71.12;99081.28;1706669;82;20294;-68
2021/03/17 07:59:55;;;;;;;34.23;15.00;;;;;;;3.47;71.20;99072.39;1705358;84;21639;-68
2021/03/17 08:02:24;;;;;;;28.23;14.30;;;;;;;3.47;71.20;99072.39;1706594;84;21166;-67
2021/03/17 08:04:53;;;;;;;35.55;15.25;;;;;;;3.53;71.13;99078.77;1711751;79;22085;-73
2021/03/17 08:07:23;;;;;;;33.65;16.02;;;;;;;3.55;71.13;99069.17;1762238;80;21246;-75
2021/03/17 08:09:52;;;;;;;41.25;16.87;;;;;;;3.69;71.00;99078.37;1735285;81;21201;-73
2021/03/17 08:12:21;;;;;;;38.42;14.98;;;;;;;3.69;71.00;99078.37;1742592;80;21157;-71
2021/03/17 08:14:51;;;;;;;34.83;13.00;;;;;;;3.84;69.97;99075.36;1768414;80;21141;-73
2021/03/17 08:17:35;;;;;;;25.70;15.10;;;;;;;3.84;69.97;99075.36;1758544;80;22412;-74
2021/03/17 08:20:24;;;;;;;33.33;15.50;;;;;;;3.92;70.40;99072.56;1736976;80;21273;-70
2021/03/17 08:22:52;;;;;;;38.70;16.00;;;;;;;4.01;69.45;99069.71;1744318;82;21167;-68
2021/03/17 08:25:43;;;;;;;38.15;15.80;;;;;;;4.08;69.52;99071.25;1746708;81;21124;-69
2021/03/17 08:28:43;;;;;;;29.82;15.28;;;;;;;4.10;69.08;99066.86;1752151;81;21166;-68
2021/03/17 08:32:08;;;;;;;29.45;13.93;;;;;;;4.12;68.45;99069.43;1610937;87;21273;-68
2021/03/17 08:34:59;;;;;;;28.07;12.87;;;;;;;4.22;67.99;99065.66;1807015;75;24118;-75
2021/03/17 08:37:52;;;;;;;29.40;14.00;;;;;;;4.22;68.18;99056.53;1735245;82;21198;-73
2021/03/17 08:40:35;;;;;;;34.67;14.85;;;;;;;4.31;66.43;99065.39;1731084;82;22266;-75
2021/03/17 08:43:33;;;;;;;26.50;14.87;;;;;;;4.36;66.77;99063.50;1732212;82;21292;-73
2021/03/17 08:46:12;;;;;;;35.50;15.08;;;;;;;4.41;65.80;99061.61;1723104;82;21202;-72
2021/03/17 08:49:01;;;;;;;33.92;13.68;;;;;;;4.47;66.47;99058.44;1722795;83;21673;-74
2021/03/17 08:51:53;;;;;;;32.08;13.95;;;;;;;4.57;65.47;99057.26;1730457;78;21225;-68
2021/03/17 08:54:46;;;;;;;29.50;13.62;;;;;;;4.67;64.65;99051.31;1700655;84;21260;-67
2021/03/17 08:57:14;;;;;;;32.37;14.37;;;;;;;4.73;64.66;99051.98;1700947;82;21242;-68
2021/03/17 08:59:47;;;;;;;29.07;14.00;;;;;;;4.83;65.03;99062.98;1711061;83;21210;-68
2021/03/17 09:02:26;;;;;;;30.65;13.00;;;;;;;4.90;64.46;99064.95;1723419;81;21240;-68
2021/03/17 09:04:57;;;;;;;28.20;12.55;;;;;;;4.83;64.77;99063.86;1724910;77;21220;-70
2021/03/17 09:07:34;;;;;;;28.50;12.43;;;;;;;4.81;64.25;99063.05;1689757;83;22552;-70
2021/03/17 09:10:16;;;;;;;29.48;12.20;;;;;;;4.78;64.41;99061.81;1724134;83;21668;-70
2021/03/17 09:12:49;;;;;;;27.42;12.88;;;;;;;4.78;64.49;99068.34;1697494;84;21570;-71
2021/03/17 09:15:17;;;;;;;34.27;14.40;;;;;;;4.83;64.66;99063.86;1696798;83;21174;-72
2021/03/17 09:17:59;;;;;;;24.87;14.00;;;;;;;4.89;63.93;99069.33;1697897;83;21178;-70
2021/03/17 09:20:43;;;;;;;23.83;12.82;;;;;;;4.86;64.14;99069.43;1706453;80;21937;-68
2021/03/17 09:23:19;;;;;;;30.90;12.40;;;;;;;4.91;64.71;99074.51;1729703;81;21596;-68
2021/03/17 09:25:59;;;;;;;24.57;11.53;;;;;;;4.97;64.14;99069.08;1757364;81;21190;-68
2021/03/17 09:28:35;;;;;;;24.65;11.25;;;;;;;5.03;64.16;99071.50;1762476;81;21619;-67
2021/03/17 09:31:08;;;;;;;29.48;12.13;;;;;;;5.03;63.99;99067.59;1762570;79;21177;-67
2021/03/17 09:33:39;;;;;;;24.52;12.63;;;;;;;5.09;64.73;99071.33;1762747;81;21375;-67
2021/03/17 09:36:13;;;;;;;29.00;11.85;;;;;;;5.18;66.16;99071.03;1762503;79;21700;-73
2021/03/17 09:38:49;;;;;;;25.43;10.63;;;;;;;5.32;64.06;99076.27;1749735;81;21191;-72
2021/03/17 09:41:20;;;;;;;26.23;11.30;;;;;;;5.42;63.58;99072.44;1750150;81;21216;-74
2021/03/17 09:43:52;;;;;;;27.70;11.03;;;;;;;5.51;63.81;99081.73;1732973;82;21258;-74
2021/03/17 09:46:27;;;;;;;;;;;;;;;5.52;62.79;99079.08;1742501;82;21206;-73
2021/03/17 09:48:59;;;;;;;28.50;10.48;;;;;;;5.53;63.01;99082.54;1736905;82;20270;-74
2021/03/17 09:51:40;;;;;;;26.02;10.60;;;;;;;5.52;61.82;99083.00;1737611;79;21213;-66
2021/03/17 09:54:10;;;;;;;;;;;;;;;5.44;62.53;99076.70;1737727;82;21175;-67
2021/03/17 09:56:49;;;;;;;27.22;11.48;;;;;;;5.44;63.15;99079.77;1738693;82;20288;-67
2021/03/17 09:59:35;;;;;;;24.35;10.15;;;;;;;5.49;63.21;99081.77;1736019;82;21387;-69
2021/03/17 10:02:22;;;;;;;21.57;10.80;;;;;;;5.56;62.23;99085.89;1730311;81;22207;-64
2021/03/17 10:05:00;;;;;;;22.37;9.95;;;;;;;5.51;61.39;99086.95;1736499;82;21160;-67
2021/03/17 10:07:30;;;;;;;24.07;10.60;;;;;;;5.17;61.84;99036.68;1714625;82;21197;-65
2021/03/17 10:09:59;;;;;;;24.02;11.35;;;;;;;5.35;62.42;99070.94;1745649;81;21085;-67
2021/03/17 10:12:31;;;;;;;23.42;9.88;;;;;;;5.36;62.76;99072.20;1753465;81;21635;-65
2021/03/17 10:15:10;;;;;;;20.05;9.43;;;;;;;5.35;62.82;99060.49;1716012;82;21155;-66
2021/03/17 10:17:57;;;;;;;22.55;10.45;;;;;;;5.41;63.48;99069.44;1745987;80;21125;-65
2021/03/17 10:20:58;;;;;;;18.75;9.20;;;;;;;5.43;62.53;99063.72;1691812;79;21143;-69
2021/03/17 10:23:53;;;;;;;18.15;8.88;;;;;;;5.41;61.61;99066.83;1699061;84;21087;-68
2021/03/17 10:26:42;;;;;;;21.75;9.23;;;;;;;5.40;61.69;99069.02;1697971;83;21404;-71
2021/03/17 10:32:01;;;;;;;23.20;9.45;;;;;;;5.40;62.73;99063.80;1715447;83;21190;-70
2021/03/17 10:34:34;;;;;;;23.27;9.83;;;;;;;5.45;61.92;99068.41;1691877;84;21107;-70
2021/03/17 10:37:01;;;;;;;26.15;9.85;;;;;;;5.52;62.37;99067.33;1737582;79;21095;-65
2021/03/17 10:39:32;;;;;;;29.92;10.25;;;;;;;5.56;60.98;99068.91;1762575;81;21386;-65
2021/03/17 10:41:59;;;;;;;27.37;10.00;;;;;;;5.53;60.99;99067.72;1758593;81;21130;-64
2021/03/17 10:44:30;;;;;;;23.47;9.23;;;;;;;5.53;61.46;99067.72;1763526;81;21138;-65
2021/03/17 10:47:11;;;;;;;26.90;9.20;;;;;;;5.59;61.77;99066.64;1763936;81;21160;-64
2021/03/17 10:49:46;;;;;;;25.77;10.63;;;;;;;5.62;60.90;99070.02;1764118;81;21106;-64
2021/03/17 10:52:16;;;;;;;27.87;10.80;;;;;;;5.56;60.97;99062.38;1769185;78;21358;-69
2021/03/17 10:54:45;;;;;;;26.70;10.53;;;;;;;5.59;61.43;99064.91;1749261;81;21209;-70
2021/03/17 10:57:21;;;;;;;;;;;;;;;5.67;61.98;99069.41;1772183;81;21187;-70
2021/03/17 10:59:50;;;;;;;21.62;9.40;;;;;;;5.76;60.80;99070.86;1770274;81;20267;-70
2021/03/17 11:02:28;;;;;;;24.30;9.05;;;;;;;5.79;60.99;99065.97;1769662;81;21144;-69
2021/03/17 11:05:27;;;;;;;26.25;9.68;;;;;;;5.83;61.07;99062.36;1747808;81;22232;-69
2021/03/17 11:08:09;;;;;;;22.73;9.25;;;;;;;5.86;60.61;99065.70;1780575;79;21093;-65
2021/03/17 11:10:52;;;;;;;23.05;9.53;;;;;;;5.83;60.22;99067.58;1784417;79;21548;-65
2021/03/17 11:13:24;;;;;;;22.30;9.33;;;;;;;5.82;60.37;99065.86;1796594;79;21074;-64
2021/03/17 11:16:01;;;;;;;21.87;8.03;;;;;;;5.88;61.14;99073.49;1773423;79;21080;-65
2021/03/17 11:18:32;;;;;;;21.50;9.10;;;;;;;5.97;61.23;99055.37;1738828;82;21257;-66
2021/03/17 11:21:09;;;;;;;18.98;9.28;;;;;;;6.01;60.93;99055.67;1753752;78;21178;-70
2021/03/17 11:23:39;;;;;;;24.20;10.20;;;;;;;6.01;60.75;99063.05;1781946;79;21128;-68
2021/03/17 11:26:10;;;;;;;22.80;8.90;;;;;;;6.03;60.87;99056.02;1769769;81;21786;-69
2021/03/17 11:28:39;;;;;;;30.05;12.28;;;;;;;6.05;60.75;99054.20;1768542;81;21193;-70
2021/03/17 11:31:09;;;;;;;27.50;10.15;;;;;;;6.06;60.25;99059.81;1779979;79;22173;-70
2021/03/17 11:33:38;;;;;;;22.58;10.08;;;;;;;6.01;60.21;99057.82;1764355;80;21160;-72
2021/03/17 11:36:07;;;;;;;21.27;8.80;;;;;;;5.96;60.54;99053.22;1775731;78;21175;-65
2021/03/17 11:38:35;;;;;;;28.25;9.93;;;;;;;5.96;60.68;99058.88;1788520;79;21135;-63
2021/03/17 11:41:03;;;;;;;25.77;8.43;;;;;;;5.98;60.80;99051.41;1819612;78;21082;-64
2021/03/17 11:43:32;;;;;;;21.60;8.95;;;;;;;5.97;61.29;99054.91;1825035;78;22193;-64
2021/03/17 11:46:01;;;;;;;28.52;10.13;;;;;;;5.96;60.96;99050.61;1830413;78;21642;-65
2021/03/17 11:48:30;;;;;;;29.70;9.50;;;;;;;5.92;60.94;99063.34;1813297;78;21086;-63
2021/03/17 11:51:03;;;;;;;26.87;9.95;;;;;;;5.85;60.82;99060.55;1790192;77;21143;-71
2021/03/17 11:53:33;;;;;;;26.77;9.63;;;;;;;5.78;61.50;99066.89;1702124;83;21148;-70
2021/03/17 11:56:01;;;;;;;23.10;9.23;;;;;;;5.68;61.45;99065.91;1706948;82;21459;-69
2021/03/17 11:58:29;;;;;;;21.82;9.28;;;;;;;5.60;61.19;99066.60;1708988;82;21604;-68
2021/03/17 12:00:58;;;;;;;24.60;10.43;;;;;;;5.52;61.56;99073.86;1682431;83;21123;-70
2021/03/17 12:03:27;;;;;;;31.45;12.93;;;;;;;5.45;61.98;99069.29;1720218;81;21140;-68
2021/03/17 12:05:55;;;;;;;24.23;11.35;;;;;;;5.43;62.01;99067.63;1684940;82;21303;-66
2021/03/17 12:08:23;;;;;;;26.77;10.68;;;;;;;5.43;62.35;99066.33;1719176;82;21400;-66
2021/03/17 12:10:52;;;;;;;27.55;11.95;;;;;;;5.42;62.18;99065.45;1711066;83;21154;-67
2021/03/17 12:13:20;;;;;;;20.55;9.00;;;;;;;5.38;61.90;99065.60;1712709;82;21133;-67